createdAt,value
2023-09-13T00:03:46.081Z,3.97
2023-09-13T00:07:48.813Z,3.63
2023-09-13T00:11:51.230Z,3.55
2023-09-13T00:15:53.581Z,4.28
2023-09-13T00:19:57.509Z,3.50
2023-09-13T00:24:00.110Z,4.10
2023-09-13T00:28:02.241Z,3.47
2023-09-13T00:32:04.711Z,3.75
2023-09-13T00:36:06.891Z,3.80
2023-09-13T00:40:09.794Z,3.92
2023-09-13T00:44:11.976Z,4.28
2023-09-13T00:48:16.398Z,3.63
2023-09-13T00:52:18.874Z,3.88
2023-09-13T00:56:21.277Z,3.53
2023-09-13T01:00:25.586Z,3.55
2023-09-13T01:08:49.142Z,4.05
2023-09-13T01:12:56.886Z,3.97
2023-09-13T01:17:24.720Z,4.50
2023-09-13T01:21:41.443Z,3.90
2023-09-13T01:26:34.677Z,3.97
2023-09-13T01:30:38.555Z,4.60
2023-09-13T01:34:40.905Z,4.03
2023-09-13T01:38:43.491Z,4.30
2023-09-13T01:42:47.433Z,4.47
2023-09-13T01:46:52.319Z,4.82
2023-09-13T01:50:55.245Z,4.55
2023-09-13T01:54:57.342Z,4.10
2023-09-13T01:58:59.497Z,3.90
2023-09-13T02:03:01.748Z,4.25
2023-09-13T02:07:04.752Z,4.32
2023-09-13T02:11:10.002Z,3.65
2023-09-13T02:15:13.812Z,3.72
2023-09-13T02:19:15.910Z,4.43
2023-09-13T02:23:18.029Z,4.68
2023-09-13T02:27:23.876Z,3.97
2023-09-13T02:31:29.499Z,4.95
2023-09-13T02:35:32.271Z,4.43
2023-09-13T02:39:36.776Z,4.32
2023-09-13T02:43:41.202Z,4.20
2023-09-13T02:47:44.431Z,4.60
2023-09-13T02:51:48.582Z,4.85
2023-09-13T02:55:50.726Z,4.00
2023-09-13T02:59:53.271Z,4.00
2023-09-13T03:03:55.373Z,3.80
2023-09-13T03:07:58.245Z,3.88
2023-09-13T03:12:00.572Z,4.13
2023-09-13T03:16:03.074Z,4.43
2023-09-13T03:20:05.730Z,4.40
2023-09-13T03:24:12.135Z,4.53
2023-09-13T03:28:14.779Z,3.88
2023-09-13T03:32:17.491Z,5.05
2023-09-13T03:36:21.692Z,4.72
2023-09-13T03:40:28.321Z,4.75
2023-09-13T03:44:30.419Z,5.00
2023-09-13T03:48:33.833Z,4.95
2023-09-13T03:52:35.960Z,4.25
2023-09-13T03:56:38.969Z,4.25
2023-09-13T04:00:41.646Z,4.63
2023-09-13T04:04:43.846Z,4.68
2023-09-13T04:08:46.079Z,4.63
2023-09-13T04:12:49.507Z,4.50
2023-09-13T04:16:52.216Z,4.68
2023-09-13T04:20:54.391Z,5.05
2023-09-13T04:24:56.477Z,5.07
2023-09-13T04:28:58.665Z,4.50
2023-09-13T04:33:03.446Z,4.13
2023-09-13T04:37:07.451Z,4.72
2023-09-13T04:41:14.620Z,4.85
2023-09-13T04:45:17.125Z,4.97
2023-09-13T04:49:19.648Z,5.50
2023-09-13T04:53:22.817Z,5.22
2023-09-13T04:57:24.937Z,4.63
2023-09-13T05:01:28.108Z,4.90
2023-09-13T05:05:31.503Z,5.20
2023-09-13T05:09:34.348Z,5.13
2023-09-13T05:13:40.100Z,4.95
2023-09-13T05:17:42.457Z,4.47
2023-09-13T05:21:44.665Z,5.32
2023-09-13T05:25:47.685Z,4.97
2023-09-13T05:29:49.830Z,5.30
2023-09-13T05:33:51.948Z,5.40
2023-09-13T05:37:54.143Z,6.40
2023-09-13T05:41:57.295Z,5.07
2023-09-13T05:45:59.577Z,5.28
2023-09-13T05:50:01.723Z,4.82
2023-09-13T05:54:04.810Z,5.80
2023-09-13T05:58:06.969Z,6.93
2023-09-13T06:02:10.624Z,6.60
2023-09-13T06:06:12.997Z,5.65
2023-09-13T06:10:15.555Z,6.30
2023-09-13T06:14:19.886Z,5.80
2023-09-13T06:22:24.656Z,4.28
2023-09-13T06:26:27.071Z,4.70
2023-09-13T06:30:29.269Z,5.10
2023-09-13T06:34:31.672Z,4.85
2023-09-13T06:38:34.551Z,5.80
2023-09-13T06:42:54.239Z,5.82
2023-09-13T06:47:04.664Z,5.55
2023-09-13T06:55:13.058Z,4.72
2023-09-13T06:59:18.069Z,4.20
2023-09-13T07:03:22.588Z,3.78
2023-09-13T07:07:25.565Z,4.10
2023-09-13T07:11:28.098Z,4.57
2023-09-13T07:15:30.294Z,3.80
2023-09-13T07:19:32.625Z,3.88
2023-09-13T07:23:35.394Z,3.95
2023-09-13T07:27:37.522Z,3.33
2023-09-13T07:31:39.806Z,3.50
2023-09-13T07:35:41.898Z,3.38
2023-09-13T07:39:44.011Z,3.35
2023-09-13T07:43:46.139Z,3.53
2023-09-13T07:47:48.489Z,3.05
2023-09-13T07:51:50.596Z,3.45
2023-09-13T07:55:52.692Z,3.20
2023-09-13T07:59:57.575Z,2.72
2023-09-13T08:03:59.734Z,3.50
2023-09-13T08:08:02.179Z,2.85
2023-09-13T08:12:04.760Z,2.85
2023-09-13T08:16:07.104Z,2.80
2023-09-13T08:20:10.269Z,3.00
2023-09-13T08:24:12.525Z,3.40
2023-09-13T08:28:14.772Z,2.97
2023-09-13T08:32:16.978Z,3.15
2023-09-13T08:36:19.052Z,3.53
2023-09-13T08:40:21.533Z,3.33
2023-09-13T08:44:26.321Z,5.55
2023-09-13T08:48:29.301Z,3.95
2023-09-13T08:52:32.855Z,3.93
2023-09-13T08:56:36.551Z,4.07
2023-09-13T09:00:41.580Z,3.83
2023-09-13T09:04:44.733Z,3.17
2023-09-13T09:08:50.804Z,3.53
2023-09-13T09:12:58.226Z,3.22
2023-09-13T09:17:02.488Z,3.50
2023-09-13T09:21:05.411Z,4.05
2023-09-13T09:25:12.922Z,3.10
2023-09-13T09:29:19.559Z,3.00
2023-09-13T09:33:29.920Z,3.10
2023-09-13T09:37:33.965Z,3.15
2023-09-13T09:41:38.045Z,3.08
2023-09-13T09:45:40.215Z,3.13
2023-09-13T09:49:50.788Z,2.90
2023-09-13T09:53:53.856Z,3.33
2023-09-13T09:57:56.203Z,3.28
2023-09-13T10:01:59.715Z,3.33
2023-09-13T10:10:09.741Z,3.78
2023-09-13T10:14:26.087Z,2.95
2023-09-13T10:18:32.196Z,3.13
2023-09-13T10:22:37.076Z,3.65
2023-09-13T10:26:41.054Z,4.03
2023-09-13T10:30:48.128Z,3.03
2023-09-13T10:34:56.003Z,3.55
2023-09-13T10:39:18.966Z,3.00
2023-09-13T10:43:22.637Z,2.77
2023-09-13T10:47:24.937Z,3.00
2023-09-13T10:51:30.785Z,2.55
2023-09-13T10:55:34.842Z,2.90
2023-09-13T10:59:37.597Z,3.00
2023-09-13T11:03:41.904Z,3.23
2023-09-13T11:07:48.111Z,3.03
2023-09-13T11:11:55.235Z,3.10
2023-09-13T11:16:00.729Z,3.45
2023-09-13T11:20:22.699Z,3.30
2023-09-13T11:25:02.034Z,2.67
2023-09-13T11:29:22.299Z,2.67
2023-09-13T11:33:24.616Z,2.90
2023-09-13T11:37:28.228Z,2.70
2023-09-13T11:41:52.746Z,2.97
2023-09-13T11:45:58.721Z,3.22
2023-09-13T11:50:10.925Z,3.00
2023-09-13T11:54:17.655Z,2.90
2023-09-13T11:58:36.533Z,2.70
2023-09-13T12:02:46.707Z,2.70
2023-09-13T12:06:55.188Z,2.72
2023-09-13T12:11:00.652Z,2.90
2023-09-13T12:15:04.840Z,2.63
2023-09-13T12:19:12.438Z,2.40
2023-09-13T12:23:18.296Z,2.75
2023-09-13T12:27:21.039Z,2.67
2023-09-13T12:31:23.373Z,2.43
2023-09-13T12:35:25.612Z,2.33
2023-09-13T12:39:27.967Z,2.25
2023-09-13T12:43:31.054Z,2.08
2023-09-13T12:47:33.972Z,2.50
2023-09-13T12:51:37.486Z,2.60
2023-09-13T12:55:40.245Z,2.60
2023-09-13T12:59:43.017Z,2.90
2023-09-13T13:04:02.790Z,2.75
2023-09-13T13:16:19.595Z,2.47
2023-09-13T13:20:27.589Z,2.58
2023-09-13T13:24:30.351Z,2.22
2023-09-13T13:28:32.669Z,2.43
2023-09-13T13:32:34.847Z,2.08
2023-09-13T13:36:36.988Z,2.13
2023-09-13T13:40:39.149Z,2.60
2023-09-13T13:44:41.313Z,2.00
2023-09-13T13:48:45.059Z,2.40
2023-09-13T13:52:48.112Z,2.75
2023-09-13T13:56:50.998Z,1.98
2023-09-13T14:00:54.717Z,2.17
2023-09-13T14:04:57.009Z,2.20
2023-09-13T14:09:00.228Z,1.75
2023-09-13T14:17:05.331Z,2.45
2023-09-13T14:21:07.496Z,2.55
2023-09-13T14:25:10.881Z,2.22
2023-09-13T14:29:16.050Z,2.43
2023-09-13T14:33:19.466Z,2.38
2023-09-13T14:37:21.620Z,2.35
2023-09-13T14:41:26.047Z,2.63
2023-09-13T14:45:28.485Z,1.98
2023-09-13T14:49:30.713Z,2.67
2023-09-13T14:53:33.472Z,2.05
2023-09-13T14:57:36.331Z,1.70
2023-09-13T15:01:38.620Z,2.15
2023-09-13T15:05:40.768Z,2.20
2023-09-13T15:09:43.152Z,1.92
2023-09-13T15:13:47.176Z,1.90
2023-09-13T15:17:49.441Z,1.63
2023-09-13T15:21:51.611Z,1.67
2023-09-13T15:25:53.870Z,1.52
2023-09-13T15:29:56.238Z,1.50
2023-09-13T15:33:59.331Z,1.70
2023-09-13T15:38:01.446Z,1.75
2023-09-13T15:42:03.834Z,1.63
2023-09-13T15:46:07.569Z,1.40
2023-09-13T15:50:10.038Z,1.58
2023-09-13T15:54:12.220Z,1.60
2023-09-13T15:58:14.469Z,1.73
2023-09-13T16:02:17.123Z,1.80
2023-09-13T16:06:19.463Z,2.37
2023-09-13T16:10:25.386Z,1.67
2023-09-13T16:14:35.856Z,1.75
2023-09-13T16:18:38.247Z,1.80
2023-09-13T16:22:40.734Z,1.70
2023-09-13T16:26:42.840Z,1.98
2023-09-13T16:30:45.410Z,1.70
2023-09-13T16:34:47.563Z,1.90
2023-09-13T16:38:49.695Z,1.83
2023-09-13T16:42:52.200Z,1.52
2023-09-13T16:46:54.373Z,1.60
2023-09-13T16:50:56.532Z,1.77
2023-09-13T16:54:58.791Z,1.60
2023-09-13T16:59:00.917Z,1.42
2023-09-13T17:03:03.212Z,1.80
2023-09-13T17:07:08.082Z,1.80
2023-09-13T17:11:14.297Z,1.88
2023-09-13T17:15:16.934Z,2.03
2023-09-13T17:19:19.272Z,2.17
2023-09-13T17:23:22.172Z,1.77
2023-09-13T17:27:24.361Z,1.80
2023-09-13T17:31:29.813Z,1.70
2023-09-13T17:35:32.102Z,2.38
2023-09-13T17:39:34.279Z,1.80
2023-09-13T17:43:36.457Z,2.22
2023-09-13T17:47:38.536Z,2.20
2023-09-13T17:51:40.690Z,1.75
2023-09-13T17:55:42.829Z,2.10
2023-09-13T17:59:45.130Z,2.53
2023-09-13T18:03:47.480Z,2.40
2023-09-13T18:07:49.949Z,2.20
2023-09-13T18:11:54.135Z,1.95
2023-09-13T18:15:59.769Z,2.30
2023-09-13T18:20:01.988Z,2.00
2023-09-13T18:24:04.596Z,1.77
2023-09-13T18:28:07.070Z,2.08
2023-09-13T18:32:09.210Z,2.00
2023-09-13T18:36:11.296Z,2.72
2023-09-13T18:40:13.462Z,2.53
2023-09-13T18:44:16.409Z,2.40
2023-09-13T18:48:18.640Z,2.30
2023-09-13T18:52:21.060Z,2.03
2023-09-13T18:56:23.383Z,2.65
2023-09-13T19:00:25.582Z,2.38
2023-09-13T19:04:29.285Z,2.30
2023-09-13T19:08:32.664Z,2.50
2023-09-13T19:12:34.688Z,2.25
2023-09-13T19:16:38.257Z,2.13
2023-09-13T19:20:46.577Z,2.50
2023-09-13T19:24:56.700Z,1.88
2023-09-13T19:28:59.839Z,2.00
2023-09-13T19:33:04.435Z,2.88
2023-09-13T19:37:06.631Z,2.67
2023-09-13T19:41:12.186Z,2.17
2023-09-13T19:45:14.469Z,2.35
2023-09-13T19:49:16.884Z,2.28
2023-09-13T19:53:19.000Z,2.15
2023-09-13T19:57:21.681Z,2.22
2023-09-13T20:01:26.669Z,2.22
2023-09-13T20:05:28.848Z,2.60
2023-09-13T20:09:31.160Z,2.40
2023-09-13T20:13:33.625Z,2.70
2023-09-13T20:17:35.834Z,2.20
2023-09-13T20:21:38.005Z,2.92
2023-09-13T20:25:40.225Z,2.40
2023-09-13T20:29:43.125Z,2.72
2023-09-13T20:33:47.171Z,2.53
2023-09-13T20:37:50.410Z,2.53
2023-09-13T20:41:53.134Z,2.70
2023-09-13T20:45:56.677Z,2.40
2023-09-13T20:49:59.323Z,2.80
2023-09-13T20:54:01.532Z,4.90
2023-09-13T20:58:04.133Z,3.58
2023-09-13T21:02:06.314Z,2.53
2023-09-13T21:06:08.745Z,2.35
2023-09-13T21:10:10.936Z,2.40
2023-09-13T21:14:13.061Z,2.75
2023-09-13T21:18:15.256Z,3.47
2023-09-13T21:22:17.380Z,3.25
2023-09-13T21:26:19.664Z,3.75
2023-09-13T21:30:21.839Z,4.00
2023-09-13T21:34:24.871Z,3.83
2023-09-13T21:38:27.816Z,3.17
2023-09-13T21:42:29.983Z,2.78
2023-09-13T21:46:32.107Z,3.08
2023-09-13T21:50:34.235Z,3.10
2023-09-13T21:54:46.705Z,2.92
2023-09-13T21:58:48.913Z,3.15
2023-09-13T22:02:51.132Z,3.47
2023-09-13T22:06:54.650Z,2.72
2023-09-13T22:11:08.624Z,3.42
2023-09-13T22:15:11.715Z,3.03
2023-09-13T22:19:14.808Z,3.25
2023-09-13T22:23:17.092Z,3.53
2023-09-13T22:27:19.243Z,3.63
2023-09-13T22:31:21.485Z,3.60
2023-09-13T22:35:23.763Z,3.22
2023-09-13T22:39:26.218Z,3.42
2023-09-13T22:43:28.490Z,3.15
2023-09-13T22:47:30.610Z,3.00
2023-09-13T22:51:33.005Z,3.35
2023-09-13T22:55:35.922Z,3.33
2023-09-13T22:59:38.102Z,3.17
2023-09-13T23:03:46.154Z,3.53
2023-09-13T23:07:55.124Z,3.40
2023-09-13T23:11:57.263Z,3.38
2023-09-13T23:16:05.741Z,3.30
2023-09-13T23:20:12.447Z,3.60
2023-09-13T23:24:16.370Z,3.47
2023-09-13T23:28:18.434Z,3.50
2023-09-13T23:32:21.141Z,3.60
2023-09-13T23:36:23.412Z,3.90
2023-09-13T23:40:25.494Z,3.35
2023-09-13T23:44:28.102Z,3.25
2023-09-13T23:48:30.938Z,3.80
2023-09-13T23:52:33.092Z,3.65
2023-09-13T23:56:35.147Z,3.95
